Time;durP1;ratioP1;P1;durP2;ratioP2;P2;SDS_P1;SDS_P2;PMS_P1;PMS_P2;Temp;Humidity;BMP_temperature;BMP_pressure;BME280_temperature;BME280_humidity;BME280_pressure;Samples;Min_cycle;Max_cycle;Signal;HPM_P1;HPM_P2
2021/05/26 00:00:29;;;;;;;1.90;0.70;;;9.10;99.90;;;;;;2089644;28;20207;-66
2021/05/26 00:01:29;;;;;;;2.07;0.80;;;9.20;99.90;;;;;;2089432;28;20185;-65
2021/05/26 00:02:30;;;;;;;3.43;1.23;;;9.20;99.90;;;;;;2089649;28;20187;-66
2021/05/26 00:03:31;;;;;;;1.63;0.90;;;9.20;99.90;;;;;;2089643;28;20180;-66
2021/05/26 00:04:32;;;;;;;2.03;1.00;;;9.20;99.90;;;;;;2089766;28;20530;-65
2021/05/26 00:05:32;;;;;;;2.30;1.07;;;9.10;99.90;;;;;;2089594;28;20174;-65
2021/05/26 00:06:33;;;;;;;3.00;1.10;;;9.20;99.90;;;;;;2089817;28;20175;-66
2021/05/26 00:07:34;;;;;;;1.10;0.87;;;9.10;99.90;;;;;;2089412;28;20571;-66
2021/05/26 00:08:37;;;;;;;2.80;0.93;;;9.10;99.90;;;;;;2089731;28;20179;-65
2021/05/26 00:09:38;;;;;;;3.08;0.98;;;9.10;99.90;;;;;;2088138;28;20274;-66
2021/05/26 00:10:39;;;;;;;2.47;0.90;;;9.10;99.90;;;;;;2089002;28;20669;-66
2021/05/26 00:11:39;;;;;;;1.77;0.90;;;9.20;99.90;;;;;;2088733;28;20644;-65
2021/05/26 00:12:40;;;;;;;2.80;1.20;;;9.20;99.90;;;;;;2089000;28;20877;-66
2021/05/26 00:13:43;;;;;;;3.10;1.00;;;9.10;99.90;;;;;;2089531;28;20206;-65
2021/05/26 00:14:44;;;;;;;1.65;0.90;;;9.10;99.90;;;;;;2089116;28;20212;-66
2021/05/26 00:15:45;;;;;;;2.00;0.93;;;9.10;99.90;;;;;;2089011;28;20827;-66
2021/05/26 00:16:46;;;;;;;3.28;1.27;;;9.10;99.90;;;;;;2089124;28;20676;-66
2021/05/26 00:17:47;;;;;;;2.60;1.30;;;9.10;99.90;;;;;;2089112;28;20222;-65
2021/05/26 00:18:47;;;;;;;3.67;1.00;;;9.10;99.90;;;;;;2089639;28;20514;-65
2021/05/26 00:19:48;;;;;;;2.77;0.97;;;9.10;99.90;;;;;;2089427;28;20208;-66
2021/05/26 00:20:50;;;;;;;1.77;1.00;;;9.10;99.90;;;;;;2089761;28;20174;-66
2021/05/26 00:21:51;;;;;;;2.90;0.90;;;9.10;99.90;;;;;;2089413;28;20176;-66
2021/05/26 00:22:52;;;;;;;2.00;1.00;;;9.10;99.90;;;;;;2089645;28;20183;-66
2021/05/26 00:23:52;;;;;;;2.53;0.83;;;9.10;99.90;;;;;;2089303;28;20179;-66
2021/05/26 00:24:53;;;;;;;1.70;0.90;;;9.10;99.90;;;;;;2089544;28;20173;-65
2021/05/26 00:25:54;;;;;;;2.50;1.00;;;9.10;99.90;;;;;;2089392;28;20267;-66
2021/05/26 00:26:55;;;;;;;2.30;1.00;;;9.10;99.90;;;;;;2092222;28;20264;-65
2021/05/26 00:27:58;;;;;;;2.83;1.10;;;9.10;99.90;;;;;;2089466;28;20247;-66
2021/05/26 00:28:59;;;;;;;2.83;1.10;;;9.10;99.90;;;;;;2089447;28;20186;-66
2021/05/26 00:30:00;;;;;;;5.30;1.10;;;9.00;99.90;;;;;;2088686;28;20226;-65
2021/05/26 00:31:02;;;;;;;1.20;0.90;;;9.10;99.90;;;;;;2088910;28;20551;-65
2021/05/26 00:32:03;;;;;;;2.30;1.10;;;9.00;99.90;;;;;;2088660;28;20265;-65
2021/05/26 00:33:04;;;;;;;2.58;0.90;;;8.90;99.90;;;;;;2088966;28;20844;-65
2021/05/26 00:34:05;;;;;;;2.63;1.17;;;8.90;99.90;;;;;;2090033;28;20189;-66
2021/05/26 00:35:06;;;;;;;3.53;1.07;;;8.90;99.90;;;;;;2089573;28;20725;-65
2021/05/26 00:36:06;;;;;;;2.65;0.90;;;9.00;99.90;;;;;;2089542;28;20198;-65
2021/05/26 00:37:07;;;;;;;2.03;0.90;;;9.00;99.90;;;;;;2089473;28;20302;-65
2021/05/26 00:38:09;;;;;;;2.37;1.10;;;9.00;99.90;;;;;;2089643;28;20183;-65
2021/05/26 00:39:10;;;;;;;2.95;1.23;;;9.10;99.90;;;;;;2089497;28;20193;-65
2021/05/26 00:40:11;;;;;;;1.80;1.00;;;9.10;99.90;;;;;;2089267;28;20240;-65
2021/05/26 00:41:12;;;;;;;3.85;1.10;;;9.10;99.90;;;;;;2088560;28;20181;-65
2021/05/26 00:42:20;;;;;;;2.20;0.90;;;9.10;99.90;;;;;;2088839;28;20216;-65
2021/05/26 00:43:20;;;;;;;2.38;0.90;;;9.10;99.90;;;;;;2088763;28;20180;-67
2021/05/26 00:44:24;;;;;;;2.35;1.00;;;9.10;99.90;;;;;;2088930;28;20215;-65
2021/05/26 00:45:25;;;;;;;5.00;1.00;;;9.10;99.90;;;;;;2089247;28;20204;-65
2021/05/26 00:46:26;;;;;;;1.97;1.17;;;9.10;99.90;;;;;;2088832;28;20206;-65
2021/05/26 00:47:41;;;;;;;2.67;1.00;;;9.10;99.90;;;;;;2088702;28;20591;-65
2021/05/26 00:48:42;;;;;;;4.40;1.15;;;9.10;99.90;;;;;;2088867;28;20406;-65
2021/05/26 00:49:43;;;;;;;3.50;1.20;;;9.10;99.90;;;;;;2089262;28;20227;-65
2021/05/26 00:50:43;;;;;;;2.90;1.10;;;9.10;99.90;;;;;;2089399;28;20179;-66
2021/05/26 00:51:45;;;;;;;3.37;1.23;;;9.20;99.90;;;;;;2089129;28;20189;-65
2021/05/26 00:52:45;;;;;;;4.25;1.45;;;9.20;99.90;;;;;;2080900;28;20422;-65
2021/05/26 00:53:46;;;;;;;3.20;1.07;;;9.10;99.90;;;;;;2080618;28;20178;-65
2021/05/26 00:54:47;;;;;;;3.00;1.10;;;9.10;99.90;;;;;;2089072;28;20216;-64
2021/05/26 00:55:48;;;;;;;3.17;1.03;;;9.10;99.90;;;;;;2089143;28;20197;-65
2021/05/26 00:56:49;;;;;;;2.63;1.00;;;9.10;99.90;;;;;;2088682;28;20610;-65
2021/05/26 00:57:50;;;;;;;3.65;1.20;;;9.10;99.90;;;;;;2088407;28;20204;-64
2021/05/26 00:58:52;;;;;;;2.22;1.17;;;9.10;99.90;;;;;;2080645;28;20176;-65
2021/05/26 00:59:53;;;;;;;2.95;0.93;;;9.20;99.90;;;;;;2080376;28;20250;-65
2021/05/26 01:00:55;;;;;;;3.23;1.00;;;9.20;99.90;;;;;;2088697;28;20177;-64
2021/05/26 01:01:56;;;;;;;3.33;1.25;;;9.10;99.90;;;;;;2088831;28;20204;-65
2021/05/26 01:02:57;;;;;;;3.20;1.43;;;9.10;99.90;;;;;;2088640;28;20178;-65
2021/05/26 01:03:59;;;;;;;2.65;1.02;;;9.00;99.90;;;;;;2088577;28;20203;-65
2021/05/26 01:05:00;;;;;;;3.40;1.10;;;9.00;99.90;;;;;;2088555;28;20201;-65
2021/05/26 01:06:01;;;;;;;3.27;1.10;;;9.00;99.90;;;;;;2088598;28;20207;-65
2021/05/26 01:07:02;;;;;;;2.65;1.05;;;9.00;99.90;;;;;;2089119;28;20632;-65
2021/05/26 01:08:03;;;;;;;2.97;0.97;;;9.00;99.90;;;;;;2089096;28;20172;-64
2021/05/26 01:09:04;;;;;;;3.13;1.05;;;8.90;99.90;;;;;;2089244;28;20263;-65
2021/05/26 01:10:06;;;;;;;2.87;1.13;;;9.00;99.90;;;;;;2089055;28;20259;-65
2021/05/26 01:11:08;;;;;;;2.25;0.90;;;8.90;99.90;;;;;;2089231;28;20190;-64
2021/05/26 01:12:09;;;;;;;2.58;1.08;;;8.90;99.90;;;;;;2089044;28;20181;-65
2021/05/26 01:13:11;;;;;;;2.90;1.00;;;8.90;99.90;;;;;;2088634;28;20662;-65
2021/05/26 01:14:11;;;;;;;2.85;1.08;;;8.90;99.90;;;;;;2088488;28;20180;-66
2021/05/26 01:15:14;;;;;;;1.73;0.90;;;8.90;99.90;;;;;;2088541;28;20626;-66
2021/05/26 01:16:15;;;;;;;2.40;1.15;;;8.90;99.90;;;;;;2088717;28;20642;-66
2021/05/26 01:17:16;;;;;;;3.10;1.10;;;8.90;99.90;;;;;;2088572;28;20184;-66
2021/05/26 01:18:29;;;;;;;3.53;1.23;;;8.90;99.90;;;;;;2089058;28;20590;-66
2021/05/26 01:19:30;;;;;;;4.18;0.93;;;8.80;99.90;;;;;;2088378;28;20903;-65
2021/05/26 01:20:30;;;;;;;3.87;1.10;;;8.80;99.90;;;;;;2088383;28;20200;-65
2021/05/26 01:21:31;;;;;;;2.57;1.20;;;8.80;99.90;;;;;;2088242;28;20189;-65
2021/05/26 01:22:32;;;;;;;2.17;1.30;;;8.80;99.90;;;;;;2088421;28;20176;-65
2021/05/26 01:23:33;;;;;;;5.57;1.27;;;8.80;99.90;;;;;;2089014;28;20180;-64
2021/05/26 01:24:35;;;;;;;2.38;1.25;;;8.80;99.90;;;;;;2088966;28;20243;-65
2021/05/26 01:25:36;;;;;;;4.15;1.33;;;8.80;99.90;;;;;;2089113;28;20629;-67
2021/05/26 01:26:36;;;;;;;2.63;1.10;;;8.80;99.90;;;;;;2089041;28;20225;-65
2021/05/26 01:27:37;;;;;;;3.03;1.10;;;8.70;99.90;;;;;;2089099;28;20181;-65
2021/05/26 01:28:38;;;;;;;2.83;1.10;;;8.70;99.90;;;;;;2088910;28;20183;-67
2021/05/26 01:29:40;;;;;;;2.42;1.13;;;8.60;99.90;;;;;;2089041;28;20177;-66
2021/05/26 01:30:42;;;;;;;2.45;1.10;;;8.60;99.90;;;;;;2088990;28;20180;-66
2021/05/26 01:31:44;;;;;;;3.92;1.10;;;8.60;99.90;;;;;;2088265;28;20174;-66
2021/05/26 01:32:48;;;;;;;3.58;0.90;;;8.60;99.90;;;;;;2080271;28;20223;-66
2021/05/26 01:33:50;;;;;;;5.60;1.15;;;8.60;99.90;;;;;;2080594;28;20268;-66
2021/05/26 01:34:50;;;;;;;3.10;1.00;;;8.70;99.90;;;;;;2088325;28;20253;-66
2021/05/26 01:35:51;;;;;;;4.93;1.23;;;8.70;99.90;;;;;;2089082;28;20187;-66
2021/05/26 01:36:52;;;;;;;3.83;1.20;;;8.70;99.90;;;;;;2089036;28;20175;-66
2021/05/26 01:37:53;;;;;;;4.80;1.13;;;8.80;99.90;;;;;;2089115;28;20641;-66
2021/05/26 01:38:53;;;;;;;1.43;0.90;;;8.80;99.90;;;;;;2088923;28;20170;-66
2021/05/26 01:39:55;;;;;;;3.83;1.17;;;8.80;99.90;;;;;;2088858;28;20185;-66
2021/05/26 01:40:59;;;;;;;4.13;1.30;;;8.80;99.90;;;;;;2088917;28;20212;-67
2021/05/26 01:41:59;;;;;;;3.08;1.08;;;8.90;99.90;;;;;;2088255;28;20175;-66
2021/05/26 01:43:00;;;;;;;2.40;1.10;;;8.80;99.90;;;;;;2080099;28;20185;-66
2021/05/26 01:44:02;;;;;;;2.67;1.10;;;8.80;99.90;;;;;;2080196;28;20231;-66
2021/05/26 01:45:07;;;;;;;4.82;1.20;;;8.70;99.90;;;;;;2088292;28;20185;-66
2021/05/26 01:46:07;;;;;;;5.47;1.15;;;8.70;99.90;;;;;;2088409;28;20617;-66
2021/05/26 01:47:08;;;;;;;2.87;1.13;;;8.60;99.90;;;;;;2088359;28;20188;-66
2021/05/26 01:48:09;;;;;;;3.07;1.13;;;8.60;99.90;;;;;;2089214;28;20187;-66
2021/05/26 01:49:10;;;;;;;3.10;1.15;;;8.50;99.90;;;;;;2088957;28;20241;-67
2021/05/26 01:50:30;;;;;;;4.37;1.20;;;8.50;99.90;;;;;;2088862;28;20610;-67
2021/05/26 01:51:31;;;;;;;3.88;1.25;;;8.50;99.90;;;;;;2088155;28;20230;-66
2021/05/26 01:52:32;;;;;;;1.90;0.98;;;8.40;99.90;;;;;;2088748;28;20298;-66
2021/05/26 01:53:33;;;;;;;5.13;1.40;;;8.30;99.90;;;;;;2088895;28;20181;-64
2021/05/26 01:54:35;;;;;;;4.03;1.30;;;8.30;99.90;;;;;;2089012;28;20176;-65
2021/05/26 01:55:38;;;;;;;4.75;1.35;;;8.30;99.90;;;;;;2088218;28;20553;-65
2021/05/26 01:56:39;;;;;;;2.72;1.20;;;8.20;99.90;;;;;;2088592;28;20184;-67
2021/05/26 01:57:42;;;;;;;7.63;1.20;;;8.10;99.90;;;;;;2089020;28;20212;-65
2021/05/26 01:58:43;;;;;;;4.63;1.02;;;8.00;99.90;;;;;;2089182;28;20181;-66
2021/05/26 01:59:44;;;;;;;4.23;1.20;;;8.00;99.90;;;;;;2088985;28;20176;-67
2021/05/26 02:00:45;;;;;;;3.40;1.23;;;8.00;99.90;;;;;;2089095;28;20181;-64
2021/05/26 02:01:46;;;;;;;4.10;1.35;;;8.00;99.90;;;;;;2088837;28;20198;-66
2021/05/26 02:02:48;;;;;;;8.37;1.90;;;7.90;99.90;;;;;;2089179;28;20664;-65
2021/05/26 02:03:49;;;;;;;5.32;1.38;;;7.90;99.90;;;;;;2088364;28;20744;-66
2021/05/26 02:04:52;;;;;;;3.10;1.17;;;7.80;99.90;;;;;;2088473;28;20180;-67
2021/05/26 02:05:53;;;;;;;4.47;1.52;;;7.80;99.90;;;;;;2088343;28;20180;-65
2021/05/26 02:07:10;;;;;;;3.83;1.43;;;7.80;99.90;;;;;;2088334;28;20176;-65
2021/05/26 02:08:10;;;;;;;3.47;1.52;;;7.70;99.90;;;;;;2082316;28;20166;-64
2021/05/26 02:09:11;;;;;;;4.53;1.30;;;7.70;99.90;;;;;;2088431;28;20283;-64
2021/05/26 02:10:15;;;;;;;3.23;1.30;;;7.60;99.90;;;;;;2088807;28;20281;-66
2021/05/26 02:12:41;;;;;;;3.72;1.40;;;7.60;99.90;;;;;;2088510;28;20655;-66
2021/05/26 02:13:42;;;;;;;2.80;1.30;;;7.60;99.90;;;;;;2088997;28;20172;-66
2021/05/26 02:14:43;;;;;;;5.33;1.40;;;7.60;99.90;;;;;;2088903;28;20278;-65
2021/05/26 02:15:43;;;;;;;4.00;1.50;;;7.60;99.90;;;;;;2088984;28;20181;-65
2021/05/26 02:16:44;;;;;;;3.80;1.40;;;7.60;99.90;;;;;;2088781;28;20189;-65
2021/05/26 02:17:45;;;;;;;3.43;1.40;;;7.50;99.90;;;;;;2088119;28;20177;-65
2021/05/26 02:18:45;;;;;;;3.50;1.10;;;7.50;99.90;;;;;;2088274;28;20229;-65
2021/05/26 02:19:47;;;;;;;1.73;1.20;;;7.50;99.90;;;;;;2088778;28;20180;-65
2021/05/26 02:20:48;;;;;;;4.30;1.35;;;7.50;99.90;;;;;;2088226;28;20181;-65
2021/05/26 02:21:49;;;;;;;3.50;1.40;;;7.40;99.90;;;;;;2088440;28;20181;-65
2021/05/26 02:22:49;;;;;;;5.70;1.70;;;7.50;99.90;;;;;;2090741;28;20625;-65
2021/05/26 02:23:51;;;;;;;3.20;1.30;;;7.40;99.90;;;;;;2089027;28;20181;-65
2021/05/26 02:24:52;;;;;;;3.75;1.50;;;7.40;99.90;;;;;;2088178;28;20241;-65
2021/05/26 02:25:52;;;;;;;3.30;1.38;;;7.30;99.90;;;;;;2088327;28;20192;-65
2021/05/26 02:26:53;;;;;;;4.00;1.20;;;7.30;99.90;;;;;;2088830;28;20184;-65
2021/05/26 02:27:54;;;;;;;2.17;1.30;;;7.30;99.90;;;;;;2088730;28;20180;-66
2021/05/26 02:28:55;;;;;;;4.77;1.37;;;7.20;99.90;;;;;;2088799;28;20268;-66
2021/05/26 02:29:56;;;;;;;2.60;1.40;;;7.10;99.90;;;;;;2088073;28;20710;-66
2021/05/26 02:30:57;;;;;;;2.43;1.37;;;7.10;99.90;;;;;;2088126;28;20177;-65
2021/05/26 02:31:57;;;;;;;4.73;1.53;;;7.10;99.90;;;;;;2088687;28;20757;-66
2021/05/26 02:32:58;;;;;;;3.03;1.60;;;7.10;99.90;;;;;;2089056;28;20543;-65
2021/05/26 02:33:59;;;;;;;2.83;1.50;;;7.10;99.90;;;;;;2090382;28;20173;-65
2021/05/26 02:34:59;;;;;;;2.67;1.30;;;7.20;99.90;;;;;;2090264;28;20675;-66
2021/05/26 02:36:01;;;;;;;3.97;1.50;;;7.20;99.90;;;;;;2090383;28;20176;-65
2021/05/26 02:37:03;;;;;;;3.25;1.52;;;7.20;99.90;;;;;;2090221;28;20619;-65
2021/05/26 02:38:04;;;;;;;4.68;1.60;;;7.10;99.90;;;;;;2090311;28;20231;-65
2021/05/26 02:39:06;;;;;;;3.92;1.35;;;7.10;99.90;;;;;;2090259;28;20180;-65
2021/05/26 02:40:08;;;;;;;2.50;1.20;;;7.10;99.90;;;;;;2089682;28;20211;-65
2021/05/26 02:41:10;;;;;;;6.00;1.67;;;7.10;99.90;;;;;;2089532;28;20883;-65
2021/05/26 02:42:11;;;;;;;2.75;1.20;;;7.20;99.90;;;;;;2090184;28;20180;-64
2021/05/26 02:43:11;;;;;;;3.60;1.60;;;7.10;99.90;;;;;;2090267;28;20177;-64
2021/05/26 02:44:12;;;;;;;4.77;1.47;;;7.20;99.90;;;;;;2090246;28;20220;-65
2021/05/26 02:45:14;;;;;;;3.30;1.60;;;7.10;99.90;;;;;;2090316;28;20176;-65
2021/05/26 02:46:14;;;;;;;4.57;1.38;;;7.20;99.90;;;;;;2090184;28;20828;-65
2021/05/26 02:47:15;;;;;;;7.40;1.80;;;7.10;99.90;;;;;;2090339;28;20207;-65
2021/05/26 02:48:16;;;;;;;2.93;1.57;;;7.20;99.90;;;;;;2090228;28;20535;-65
2021/05/26 02:49:17;;;;;;;4.10;1.23;;;7.20;99.90;;;;;;2090224;28;20183;-65
2021/05/26 02:50:18;;;;;;;3.00;1.40;;;7.20;99.90;;;;;;2090072;28;20660;-65
2021/05/26 02:51:19;;;;;;;3.42;1.30;;;7.20;99.90;;;;;;2089453;28;20207;-65
2021/05/26 02:52:20;;;;;;;3.60;1.20;;;7.10;99.90;;;;;;2087879;28;20729;-65
2021/05/26 02:53:20;;;;;;;6.37;1.67;;;7.10;99.90;;;;;;2083787;28;20216;-65
2021/05/26 02:54:21;;;;;;;5.10;1.40;;;7.00;99.90;;;;;;2086833;28;20188;-66
2021/05/26 02:55:23;;;;;;;4.20;1.07;;;7.00;99.90;;;;;;2093016;28;20649;-66
2021/05/26 02:56:24;;;;;;;2.60;1.00;;;7.00;99.90;;;;;;2098601;28;20221;-67
2021/05/26 02:57:25;;;;;;;3.30;1.13;;;6.90;99.90;;;;;;2098488;28;20597;-66
2021/05/26 02:58:25;;;;;;;2.37;1.10;;;6.90;99.90;;;;;;2098564;28;20275;-67
2021/05/26 02:59:26;;;;;;;2.97;1.20;;;6.90;99.90;;;;;;2098431;28;20172;-66
2021/05/26 03:00:27;;;;;;;3.83;1.20;;;6.90;99.90;;;;;;2098294;28;20683;-65
2021/05/26 03:01:28;;;;;;;1.43;0.93;;;6.80;99.90;;;;;;2098195;28;20175;-66
2021/05/26 03:02:28;;;;;;;3.10;1.20;;;6.80;99.90;;;;;;2098489;28;20171;-66
2021/05/26 03:03:30;;;;;;;4.17;1.30;;;6.90;99.90;;;;;;2098332;28;20279;-66
2021/05/26 03:04:30;;;;;;;2.33;1.02;;;6.80;99.90;;;;;;2098463;28;20600;-65
2021/05/26 03:05:31;;;;;;;2.93;1.20;;;6.90;99.90;;;;;;2098302;28;20226;-65
2021/05/26 03:06:32;;;;;;;2.17;1.37;;;6.80;99.90;;;;;;2097721;28;20180;-65
2021/05/26 03:07:33;;;;;;;3.10;1.33;;;6.80;99.90;;;;;;2097649;28;20270;-65
2021/05/26 03:08:33;;;;;;;3.40;1.17;;;6.80;99.90;;;;;;2098505;28;20185;-65
2021/05/26 03:09:34;;;;;;;3.90;1.33;;;6.80;99.90;;;;;;2089406;28;20180;-65
2021/05/26 03:10:35;;;;;;;2.63;1.40;;;6.80;99.90;;;;;;2089486;28;20246;-65
2021/05/26 03:11:35;;;;;;;4.77;1.27;;;6.70;99.90;;;;;;2097990;28;20179;-65
2021/05/26 03:12:36;;;;;;;2.33;1.20;;;6.70;99.90;;;;;;2098395;28;20203;-65
2021/05/26 03:13:37;;;;;;;2.83;1.30;;;6.70;99.90;;;;;;2098447;28;20223;-65
2021/05/26 03:14:38;;;;;;;3.13;1.30;;;6.70;99.90;;;;;;2098371;28;20457;-65
2021/05/26 03:15:38;;;;;;;3.20;1.23;;;6.80;99.90;;;;;;2098369;28;20171;-65
2021/05/26 03:16:41;;;;;;;2.00;1.30;;;6.80;99.90;;;;;;2098427;28;20211;-65
2021/05/26 03:17:42;;;;;;;5.15;1.40;;;6.80;99.90;;;;;;2098283;28;20556;-65
2021/05/26 03:18:46;;;;;;;1.65;1.25;;;6.80;99.90;;;;;;2089469;28;20200;-65
2021/05/26 03:19:47;;;;;;;4.85;1.63;;;6.80;99.90;;;;;;2089545;28;20764;-64
2021/05/26 03:20:49;;;;;;;3.17;1.20;;;6.90;99.90;;;;;;2098402;28;20164;-65
2021/05/26 03:21:49;;;;;;;3.38;1.20;;;6.80;99.90;;;;;;2097352;28;20584;-65
2021/05/26 03:22:50;;;;;;;3.13;1.30;;;6.90;99.90;;;;;;2097821;28;20259;-65
2021/05/26 03:23:51;;;;;;;2.57;1.30;;;6.90;99.90;;;;;;2098304;28;20693;-65
2021/05/26 03:24:52;;;;;;;4.47;1.37;;;6.90;99.90;;;;;;2098343;28;20266;-65
2021/05/26 03:25:52;;;;;;;2.23;1.07;;;6.80;99.90;;;;;;2097671;28;20270;-65
2021/05/26 03:26:53;;;;;;;3.03;1.13;;;6.90;99.90;;;;;;2097783;28;20539;-65
2021/05/26 03:27:54;;;;;;;4.30;1.33;;;6.90;99.90;;;;;;2098146;28;20313;-65
2021/05/26 03:28:54;;;;;;;2.73;1.30;;;6.80;99.90;;;;;;2098492;28;20926;-65
2021/05/26 03:29:55;;;;;;;2.70;1.20;;;6.90;99.90;;;;;;2098253;28;20196;-65
2021/05/26 03:30:56;;;;;;;2.97;1.10;;;6.90;99.90;;;;;;2098523;28;20205;-67
2021/05/26 03:31:56;;;;;;;3.37;1.50;;;6.90;99.90;;;;;;2098158;28;20180;-65
2021/05/26 03:32:58;;;;;;;2.30;1.30;;;6.90;99.90;;;;;;2098219;28;20176;-64
2021/05/26 03:33:59;;;;;;;3.15;1.45;;;6.80;99.90;;;;;;2098242;28;20199;-64
2021/05/26 03:35:01;;;;;;;4.17;1.00;;;6.90;99.90;;;;;;2098218;28;20207;-64
2021/05/26 03:36:04;;;;;;;3.67;1.40;;;6.90;99.90;;;;;;2097534;28;20206;-64
2021/05/26 03:37:04;;;;;;;3.65;1.50;;;6.90;99.90;;;;;;2097646;28;20548;-64
2021/05/26 03:38:06;;;;;;;3.23;1.30;;;6.90;99.90;;;;;;2098082;28;20193;-65
2021/05/26 03:39:09;;;;;;;3.63;1.48;;;6.90;99.90;;;;;;2098126;28;20739;-65
2021/05/26 03:40:14;;;;;;;4.28;1.65;;;6.90;99.90;;;;;;2098203;28;20291;-65
2021/05/26 03:41:14;;;;;;;2.80;1.20;;;6.90;99.90;;;;;;2097271;28;20184;-65
2021/05/26 03:42:15;;;;;;;1.97;1.10;;;6.90;99.90;;;;;;2097646;28;20232;-64
2021/05/26 03:43:16;;;;;;;5.03;1.80;;;6.90;99.90;;;;;;2097963;28;20211;-65
2021/05/26 03:44:17;;;;;;;4.13;1.90;;;6.90;99.90;;;;;;2098263;28;20180;-65
2021/05/26 03:45:18;;;;;;;4.50;1.60;;;6.90;99.90;;;;;;2097505;28;20243;-66
2021/05/26 03:46:18;;;;;;;2.70;1.50;;;6.90;99.90;;;;;;2097855;28;20221;-65
2021/05/26 03:47:19;;;;;;;4.83;2.53;;;6.90;99.90;;;;;;2098132;28;20674;-65
2021/05/26 03:48:20;;;;;;;4.30;1.80;;;6.90;99.90;;;;;;2098284;28;20278;-65
2021/05/26 03:49:20;;;;;;;4.57;2.00;;;6.90;99.90;;;;;;2098047;28;20674;-65
2021/05/26 03:50:21;;;;;;;5.53;2.37;;;6.90;99.90;;;;;;2098005;28;20261;-64
2021/05/26 03:51:22;;;;;;;3.27;1.50;;;6.90;99.90;;;;;;2097796;28;20180;-65
2021/05/26 03:52:22;;;;;;;3.00;1.60;;;6.90;99.90;;;;;;2098213;28;20237;-65
2021/05/26 03:53:23;;;;;;;2.47;1.57;;;6.80;99.90;;;;;;2098023;28;20184;-65
2021/05/26 03:54:24;;;;;;;2.60;1.40;;;6.80;99.90;;;;;;2098022;28;20242;-65
2021/05/26 03:55:26;;;;;;;4.20;1.43;;;6.80;99.90;;;;;;2097963;28;20215;-65
2021/05/26 03:56:27;;;;;;;2.40;1.40;;;6.90;99.90;;;;;;2098063;28;20187;-65
2021/05/26 03:57:27;;;;;;;3.72;1.33;;;6.80;99.90;;;;;;2098006;28;20250;-66
2021/05/26 03:58:28;;;;;;;3.90;1.77;;;6.80;99.90;;;;;;2098215;28;20183;-64
2021/05/26 03:59:29;;;;;;;5.50;1.67;;;6.80;99.90;;;;;;2097878;28;20176;-65
2021/05/26 04:00:29;;;;;;;2.90;1.40;;;6.90;99.90;;;;;;2097967;28;20965;-65
2021/05/26 04:01:30;;;;;;;6.50;1.70;;;6.90;99.90;;;;;;2097697;28;20227;-65
2021/05/26 04:02:31;;;;;;;7.23;2.00;;;6.90;99.90;;;;;;2098033;28;20191;-65
2021/05/26 04:03:32;;;;;;;1.93;1.30;;;6.90;99.90;;;;;;2097933;28;20179;-65
2021/05/26 04:04:33;;;;;;;3.03;2.10;;;6.90;99.90;;;;;;2098031;28;20294;-64
2021/05/26 04:05:34;;;;;;;3.38;1.40;;;6.90;99.90;;;;;;2097890;28;20183;-65
2021/05/26 04:06:35;;;;;;;3.50;1.43;;;6.90;99.90;;;;;;2098018;28;20191;-65
2021/05/26 04:07:36;;;;;;;4.30;1.90;;;6.90;99.90;;;;;;2097871;28;20183;-65
2021/05/26 04:08:36;;;;;;;4.73;2.00;;;6.90;99.90;;;;;;2098083;28;20229;-65
2021/05/26 04:09:37;;;;;;;4.87;1.70;;;7.00;99.90;;;;;;2097060;28;20187;-65
2021/05/26 04:10:38;;;;;;;4.53;2.80;;;7.00;99.90;;;;;;2097233;28;20175;-65
2021/05/26 04:11:40;;;;;;;3.87;2.10;;;7.00;99.90;;;;;;2097011;28;20242;-65
2021/05/26 04:12:40;;;;;;;2.50;2.20;;;7.00;99.90;;;;;;2089247;28;20191;-64
2021/05/26 04:13:41;;;;;;;4.17;2.00;;;7.00;99.90;;;;;;2097174;28;20184;-65
2021/05/26 04:14:42;;;;;;;2.73;1.63;;;7.10;99.90;;;;;;2097886;28;20183;-65
2021/05/26 04:15:42;;;;;;;1.57;1.20;;;7.00;99.90;;;;;;2097818;28;20184;-65
2021/05/26 04:16:43;;;;;;;3.83;2.20;;;7.10;99.90;;;;;;2097840;28;20666;-65
2021/05/26 04:17:44;;;;;;;3.83;1.50;;;7.10;99.90;;;;;;2097976;28;20176;-65
2021/05/26 04:18:44;;;;;;;5.23;2.93;;;7.10;99.90;;;;;;2095272;28;20709;-65
2021/05/26 04:19:45;;;;;;;5.40;2.10;;;7.10;99.90;;;;;;2089482;28;20180;-65
2021/05/26 04:20:46;;;;;;;2.30;1.60;;;7.10;99.90;;;;;;2089643;28;20176;-65
2021/05/26 04:21:47;;;;;;;4.63;1.87;;;7.10;99.90;;;;;;2089314;28;20523;-65
2021/05/26 04:22:47;;;;;;;3.13;1.63;;;7.10;99.90;;;;;;2089468;28;20258;-65
2021/05/26 04:23:48;;;;;;;2.33;1.20;;;7.10;99.90;;;;;;2089618;28;20176;-65
2021/05/26 04:24:49;;;;;;;3.13;1.40;;;7.10;99.90;;;;;;2089599;28;20184;-65
2021/05/26 04:25:51;;;;;;;2.07;1.53;;;7.10;99.90;;;;;;2089604;28;20169;-65
2021/05/26 04:26:52;;;;;;;2.13;1.20;;;7.20;99.90;;;;;;2089325;28;20655;-65
2021/05/26 04:27:53;;;;;;;3.30;1.20;;;7.20;99.90;;;;;;2089545;28;20173;-65
2021/05/26 04:28:53;;;;;;;2.63;1.30;;;7.20;99.90;;;;;;2089448;28;20530;-65
2021/05/26 04:29:54;;;;;;;2.13;1.20;;;7.10;99.90;;;;;;2089525;28;20172;-64
2021/05/26 04:30:55;;;;;;;2.87;1.50;;;7.10;99.90;;;;;;2089460;28;20184;-65
2021/05/26 04:31:56;;;;;;;5.30;2.00;;;7.10;99.90;;;;;;2089151;28;20181;-64
2021/05/26 04:32:57;;;;;;;2.03;1.35;;;7.10;99.90;;;;;;2089447;28;20172;-64
2021/05/26 04:33:58;;;;;;;4.83;1.40;;;7.20;99.90;;;;;;2089505;28;20180;-65
2021/05/26 04:34:58;;;;;;;3.00;1.47;;;7.20;99.90;;;;;;2089342;28;20200;-65
2021/05/26 04:35:59;;;;;;;3.00;1.60;;;7.20;99.90;;;;;;2089516;28;20176;-65
2021/05/26 04:37:00;;;;;;;3.97;1.53;;;7.20;99.90;;;;;;2089503;28;20183;-64
2021/05/26 04:38:01;;;;;;;3.43;1.53;;;7.20;99.90;;;;;;2089668;28;20263;-64
2021/05/26 04:39:02;;;;;;;4.77;1.57;;;7.20;99.90;;;;;;2089646;28;20180;-64
2021/05/26 04:40:05;;;;;;;2.80;1.40;;;7.30;99.90;;;;;;2089722;28;20194;-64
2021/05/26 04:41:06;;;;;;;3.30;1.40;;;7.30;99.90;;;;;;2088845;28;20181;-64
2021/05/26 04:42:07;;;;;;;4.87;1.57;;;7.30;99.90;;;;;;2088992;28;20181;-65
2021/05/26 04:43:07;;;;;;;3.30;1.50;;;7.20;99.90;;;;;;2089504;28;20188;-64
2021/05/26 04:44:08;;;;;;;2.70;1.60;;;7.20;99.90;;;;;;2089657;28;20177;-64
2021/05/26 04:45:10;;;;;;;3.83;2.07;;;7.20;99.90;;;;;;2089504;28;20185;-65
2021/05/26 04:46:10;;;;;;;6.93;2.10;;;7.20;99.90;;;;;;2089532;28;20253;-65
2021/05/26 04:47:11;;;;;;;6.67;2.67;;;7.30;99.90;;;;;;2088742;28;20197;-65
2021/05/26 04:48:12;;;;;;;5.87;1.53;;;7.30;99.90;;;;;;2088759;28;20206;-64
2021/05/26 04:49:13;;;;;;;5.00;1.53;;;7.20;99.90;;;;;;2089331;28;20185;-65
2021/05/26 04:50:14;;;;;;;5.53;1.73;;;7.20;99.90;;;;;;2089361;28;20204;-65
2021/05/26 04:51:15;;;;;;;3.67;1.50;;;7.20;99.90;;;;;;2089321;28;20176;-64
2021/05/26 04:52:15;;;;;;;4.43;1.90;;;7.20;99.90;;;;;;2089425;28;20188;-64
2021/05/26 04:53:16;;;;;;;9.07;3.10;;;7.20;99.90;;;;;;2084557;28;20188;-64
2021/05/26 04:54:17;;;;;;;6.40;2.40;;;7.20;99.90;;;;;;2080993;28;20766;-64
2021/05/26 04:55:18;;;;;;;3.50;2.40;;;7.30;99.90;;;;;;2080863;28;20565;-64
2021/05/26 04:56:18;;;;;;;6.75;3.80;;;7.20;99.90;;;;;;2080097;28;20204;-66
2021/05/26 04:57:19;;;;;;;6.43;2.63;;;7.20;99.90;;;;;;2080562;28;20178;-65
2021/05/26 04:58:20;;;;;;;7.70;3.83;;;7.20;99.90;;;;;;2081221;28;20185;-64
2021/05/26 04:59:20;;;;;;;9.73;4.50;;;7.30;99.90;;;;;;2081219;28;20177;-65
2021/05/26 05:00:22;;;;;;;11.63;4.33;;;7.30;99.90;;;;;;2081136;28;20193;-64
2021/05/26 05:01:23;;;;;;;6.18;2.67;;;7.30;99.90;;;;;;2080040;28;20181;-64
2021/05/26 05:02:23;;;;;;;6.67;2.70;;;7.30;99.90;;;;;;2080413;28;20188;-67
2021/05/26 05:03:24;;;;;;;5.40;2.20;;;7.30;99.90;;;;;;2081031;28;20188;-64
2021/05/26 05:04:25;;;;;;;9.07;2.50;;;7.30;99.90;;;;;;2080889;28;20231;-64
2021/05/26 05:05:32;;;;;;;5.67;1.87;;;7.40;99.90;;;;;;2081108;28;20181;-67
2021/05/26 05:06:33;;;;;;;4.53;2.10;;;7.30;99.90;;;;;;2081026;28;20165;-64
2021/05/26 05:07:34;;;;;;;8.47;2.13;;;7.40;99.90;;;;;;2081153;28;20189;-66
2021/05/26 05:08:34;;;;;;;7.50;2.80;;;7.40;99.90;;;;;;2081137;28;20184;-67
2021/05/26 05:09:35;;;;;;;8.47;3.20;;;7.40;99.90;;;;;;2081165;28;20235;-67
2021/05/26 05:10:36;;;;;;;6.80;2.90;;;7.40;99.90;;;;;;2080933;28;20185;-67
2021/05/26 05:11:38;;;;;;;7.18;2.85;;;7.40;99.90;;;;;;2081057;28;20181;-67
2021/05/26 05:12:39;;;;;;;5.70;2.58;;;7.40;99.90;;;;;;2080379;28;20208;-66
2021/05/26 05:13:40;;;;;;;6.73;2.60;;;7.40;99.90;;;;;;2080526;28;20194;-66
2021/05/26 05:14:40;;;;;;;6.77;2.60;;;7.40;99.90;;;;;;2080892;28;20180;-67
2021/05/26 05:15:41;;;;;;;10.43;2.80;;;7.40;99.90;;;;;;2080935;28;20239;-67
2021/05/26 05:16:42;;;;;;;6.50;2.00;;;7.40;99.90;;;;;;2080931;28;20177;-66
2021/05/26 05:17:46;;;;;;;5.13;2.33;;;7.50;99.90;;;;;;2080983;28;20647;-67
2021/05/26 05:18:47;;;;;;;8.40;2.72;;;7.50;99.90;;;;;;2080234;28;20185;-67
2021/05/26 05:19:48;;;;;;;9.60;2.80;;;7.50;99.90;;;;;;2080241;28;20182;-66
2021/05/26 05:20:48;;;;;;;8.70;2.50;;;7.50;99.90;;;;;;2080756;28;20177;-66
2021/05/26 05:21:49;;;;;;;9.73;2.70;;;7.50;99.90;;;;;;2080798;28;20244;-66
2021/05/26 05:22:52;;;;;;;5.93;2.40;;;7.50;99.90;;;;;;2080854;28;20183;-66
2021/05/26 05:23:52;;;;;;;5.35;2.75;;;7.40;99.90;;;;;;2081003;28;20656;-66
2021/05/26 05:24:53;;;;;;;7.17;2.47;;;7.40;99.90;;;;;;2080904;28;20189;-66